sensor_id;sensor_type;location;lat;lon;timestamp;P1;durP1;ratioP1;P2;durP2;ratioP2
1140;SDS011;559;48.628;8.924;2022-08-19T00:00:27;114.20;;;107.70;;
1140;SDS011;559;48.628;8.924;2022-08-19T00:02:54;117.40;;;110.77;;
1140;SDS011;559;48.628;8.924;2022-08-19T00:05:21;116.17;;;109.97;;
1140;SDS011;559;48.628;8.924;2022-08-19T00:07:48;114.40;;;108.00;;
1140;SDS011;559;48.628;8.924;2022-08-19T00:10:16;117.93;;;111.40;;
1140;SDS011;559;48.628;8.924;2022-08-19T00:12:44;114.70;;;108.33;;
1140;SDS011;559;48.628;8.924;2022-08-19T00:15:15;114.73;;;108.23;;
1140;SDS011;559;48.628;8.924;2022-08-19T00:17:45;114.20;;;107.80;;
1140;SDS011;559;48.628;8.924;2022-08-19T00:20:13;114.70;;;108.30;;
1140;SDS011;559;48.628;8.924;2022-08-19T00:22:43;118.27;;;111.50;;
1140;SDS011;559;48.628;8.924;2022-08-19T00:25:10;113.87;;;107.30;;
1140;SDS011;559;48.628;8.924;2022-08-19T00:27:37;119.30;;;112.40;;
1140;SDS011;559;48.628;8.924;2022-08-19T00:30:05;118.80;;;111.93;;
1140;SDS011;559;48.628;8.924;2022-08-19T00:32:35;118.00;;;111.07;;
1140;SDS011;559;48.628;8.924;2022-08-19T00:35:03;118.60;;;112.00;;
1140;SDS011;559;48.628;8.924;2022-08-19T00:37:30;120.83;;;114.03;;
1140;SDS011;559;48.628;8.924;2022-08-19T00:39:58;120.40;;;113.47;;
1140;SDS011;559;48.628;8.924;2022-08-19T00:42:24;119.63;;;112.73;;
1140;SDS011;559;48.628;8.924;2022-08-19T00:44:53;119.63;;;112.60;;
1140;SDS011;559;48.628;8.924;2022-08-19T00:47:19;123.77;;;116.43;;
1140;SDS011;559;48.628;8.924;2022-08-19T00:49:47;123.97;;;117.07;;
1140;SDS011;559;48.628;8.924;2022-08-19T00:52:18;123.07;;;115.63;;
1140;SDS011;559;48.628;8.924;2022-08-19T00:54:48;122.13;;;114.53;;
1140;SDS011;559;48.628;8.924;2022-08-19T00:57:17;117.40;;;110.60;;
1140;SDS011;559;48.628;8.924;2022-08-19T00:59:46;121.40;;;114.10;;
1140;SDS011;559;48.628;8.924;2022-08-19T01:02:14;124.10;;;116.70;;
1140;SDS011;559;48.628;8.924;2022-08-19T01:04:42;130.13;;;122.57;;
1140;SDS011;559;48.628;8.924;2022-08-19T01:07:09;126.07;;;118.47;;
1140;SDS011;559;48.628;8.924;2022-08-19T01:09:37;123.53;;;116.13;;
1140;SDS011;559;48.628;8.924;2022-08-19T01:12:03;127.47;;;120.17;;
1140;SDS011;559;48.628;8.924;2022-08-19T01:14:30;128.63;;;120.93;;
1140;SDS011;559;48.628;8.924;2022-08-19T01:16:57;127.33;;;119.53;;
1140;SDS011;559;48.628;8.924;2022-08-19T01:19:26;137.20;;;128.80;;
1140;SDS011;559;48.628;8.924;2022-08-19T01:21:55;135.93;;;127.40;;
1140;SDS011;559;48.628;8.924;2022-08-19T01:24:27;136.27;;;127.63;;
1140;SDS011;559;48.628;8.924;2022-08-19T01:26:53;139.53;;;130.20;;
1140;SDS011;559;48.628;8.924;2022-08-19T01:29:20;143.10;;;133.93;;
1140;SDS011;559;48.628;8.924;2022-08-19T01:31:47;145.17;;;135.60;;
1140;SDS011;559;48.628;8.924;2022-08-19T01:34:14;149.90;;;140.20;;
1140;SDS011;559;48.628;8.924;2022-08-19T01:36:41;148.67;;;138.80;;
1140;SDS011;559;48.628;8.924;2022-08-19T01:39:11;151.67;;;141.60;;
1140;SDS011;559;48.628;8.924;2022-08-19T01:41:40;154.77;;;144.57;;
1140;SDS011;559;48.628;8.924;2022-08-19T01:44:07;162.27;;;151.63;;
1140;SDS011;559;48.628;8.924;2022-08-19T01:46:35;158.47;;;147.80;;
1140;SDS011;559;48.628;8.924;2022-08-19T01:49:02;162.00;;;151.23;;
1140;SDS011;559;48.628;8.924;2022-08-19T01:51:29;163.30;;;152.13;;
1140;SDS011;559;48.628;8.924;2022-08-19T01:53:56;166.77;;;156.07;;
1140;SDS011;559;48.628;8.924;2022-08-19T01:56:24;158.27;;;147.50;;
1140;SDS011;559;48.628;8.924;2022-08-19T01:58:53;157.83;;;147.03;;
1140;SDS011;559;48.628;8.924;2022-08-19T02:01:21;166.57;;;155.47;;
1140;SDS011;559;48.628;8.924;2022-08-19T02:03:48;156.47;;;145.67;;
1140;SDS011;559;48.628;8.924;2022-08-19T02:06:15;156.37;;;145.67;;
1140;SDS011;559;48.628;8.924;2022-08-19T02:08:42;167.37;;;156.07;;
1140;SDS011;559;48.628;8.924;2022-08-19T02:11:17;161.97;;;150.90;;
1140;SDS011;559;48.628;8.924;2022-08-19T02:13:45;157.07;;;146.43;;
1140;SDS011;559;48.628;8.924;2022-08-19T02:16:13;160.90;;;150.10;;
1140;SDS011;559;48.628;8.924;2022-08-19T02:18:40;157.30;;;146.50;;
1140;SDS011;559;48.628;8.924;2022-08-19T02:21:06;159.63;;;148.87;;
1140;SDS011;559;48.628;8.924;2022-08-19T02:23:33;153.13;;;142.40;;
1140;SDS011;559;48.628;8.924;2022-08-19T02:25:59;172.27;;;161.10;;
1140;SDS011;559;48.628;8.924;2022-08-19T02:28:26;162.30;;;151.60;;
1140;SDS011;559;48.628;8.924;2022-08-19T02:30:52;174.20;;;162.80;;
1140;SDS011;559;48.628;8.924;2022-08-19T02:33:20;168.43;;;157.13;;
1140;SDS011;559;48.628;8.924;2022-08-19T02:35:47;168.53;;;157.43;;
1140;SDS011;559;48.628;8.924;2022-08-19T02:38:14;167.67;;;156.90;;
1140;SDS011;559;48.628;8.924;2022-08-19T02:40:52;166.17;;;155.17;;
1140;SDS011;559;48.628;8.924;2022-08-19T02:43:21;173.37;;;162.17;;
1140;SDS011;559;48.628;8.924;2022-08-19T02:45:48;182.43;;;170.73;;
1140;SDS011;559;48.628;8.924;2022-08-19T02:48:16;185.03;;;173.33;;
1140;SDS011;559;48.628;8.924;2022-08-19T02:50:45;179.73;;;167.70;;
1140;SDS011;559;48.628;8.924;2022-08-19T02:53:12;172.47;;;161.07;;
1140;SDS011;559;48.628;8.924;2022-08-19T02:55:42;177.67;;;166.20;;
1140;SDS011;559;48.628;8.924;2022-08-19T02:58:11;165.50;;;154.70;;
1140;SDS011;559;48.628;8.924;2022-08-19T03:00:41;172.50;;;161.70;;
1140;SDS011;559;48.628;8.924;2022-08-19T03:03:08;162.03;;;151.13;;
1140;SDS011;559;48.628;8.924;2022-08-19T03:05:36;178.03;;;166.53;;
1140;SDS011;559;48.628;8.924;2022-08-19T03:08:04;162.77;;;151.60;;
1140;SDS011;559;48.628;8.924;2022-08-19T03:10:31;172.90;;;161.50;;
1140;SDS011;559;48.628;8.924;2022-08-19T03:12:58;166.77;;;155.67;;
1140;SDS011;559;48.628;8.924;2022-08-19T03:15:24;170.70;;;159.70;;
1140;SDS011;559;48.628;8.924;2022-08-19T03:17:51;164.77;;;153.97;;
1140;SDS011;559;48.628;8.924;2022-08-19T03:20:17;173.77;;;162.33;;
1140;SDS011;559;48.628;8.924;2022-08-19T03:22:44;177.50;;;165.90;;
1140;SDS011;559;48.628;8.924;2022-08-19T03:25:12;153.77;;;143.10;;
1140;SDS011;559;48.628;8.924;2022-08-19T03:27:39;153.90;;;142.63;;
1140;SDS011;559;48.628;8.924;2022-08-19T03:30:06;155.43;;;144.40;;
1140;SDS011;559;48.628;8.924;2022-08-19T03:32:33;154.83;;;144.37;;
1140;SDS011;559;48.628;8.924;2022-08-19T03:35:00;154.70;;;143.93;;
1140;SDS011;559;48.628;8.924;2022-08-19T03:37:27;157.07;;;146.20;;
1140;SDS011;559;48.628;8.924;2022-08-19T03:39:54;151.47;;;140.83;;
1140;SDS011;559;48.628;8.924;2022-08-19T03:42:21;150.70;;;140.03;;
1140;SDS011;559;48.628;8.924;2022-08-19T03:44:48;158.90;;;148.03;;
1140;SDS011;559;48.628;8.924;2022-08-19T03:47:15;149.77;;;139.30;;
1140;SDS011;559;48.628;8.924;2022-08-19T03:49:42;153.77;;;143.07;;
1140;SDS011;559;48.628;8.924;2022-08-19T03:52:08;156.47;;;145.00;;
1140;SDS011;559;48.628;8.924;2022-08-19T03:54:35;155.80;;;144.60;;
1140;SDS011;559;48.628;8.924;2022-08-19T03:57:03;160.50;;;149.23;;
1140;SDS011;559;48.628;8.924;2022-08-19T03:59:33;156.33;;;144.97;;
1140;SDS011;559;48.628;8.924;2022-08-19T04:02:01;147.47;;;137.07;;
1140;SDS011;559;48.628;8.924;2022-08-19T04:04:35;151.20;;;140.13;;
1140;SDS011;559;48.628;8.924;2022-08-19T04:07:03;153.43;;;142.43;;
1140;SDS011;559;48.628;8.924;2022-08-19T04:09:29;152.63;;;141.87;;
1140;SDS011;559;48.628;8.924;2022-08-19T04:11:56;160.40;;;149.40;;
1140;SDS011;559;48.628;8.924;2022-08-19T04:14:24;156.80;;;145.80;;
1140;SDS011;559;48.628;8.924;2022-08-19T04:16:53;153.03;;;142.27;;
1140;SDS011;559;48.628;8.924;2022-08-19T04:19:19;161.17;;;149.87;;
1140;SDS011;559;48.628;8.924;2022-08-19T04:21:47;165.03;;;153.87;;
1140;SDS011;559;48.628;8.924;2022-08-19T04:24:17;162.23;;;151.13;;
1140;SDS011;559;48.628;8.924;2022-08-19T04:26:44;158.63;;;147.30;;
1140;SDS011;559;48.628;8.924;2022-08-19T04:29:13;154.03;;;142.70;;
1140;SDS011;559;48.628;8.924;2022-08-19T04:31:42;154.23;;;143.00;;
1140;SDS011;559;48.628;8.924;2022-08-19T04:34:12;159.40;;;147.93;;
1140;SDS011;559;48.628;8.924;2022-08-19T04:36:42;158.80;;;147.27;;
1140;SDS011;559;48.628;8.924;2022-08-19T04:39:10;171.60;;;159.93;;
1140;SDS011;559;48.628;8.924;2022-08-19T04:41:37;160.13;;;148.23;;
1140;SDS011;559;48.628;8.924;2022-08-19T04:44:22;166.73;;;155.00;;
1140;SDS011;559;48.628;8.924;2022-08-19T04:46:49;165.57;;;153.80;;
1140;SDS011;559;48.628;8.924;2022-08-19T04:49:18;160.03;;;148.43;;
1140;SDS011;559;48.628;8.924;2022-08-19T04:51:47;159.07;;;147.67;;
1140;SDS011;559;48.628;8.924;2022-08-19T04:54:14;157.33;;;145.63;;
1140;SDS011;559;48.628;8.924;2022-08-19T04:56:42;151.77;;;140.37;;
1140;SDS011;559;48.628;8.924;2022-08-19T04:59:09;156.50;;;145.20;;
1140;SDS011;559;48.628;8.924;2022-08-19T05:01:36;152.37;;;140.63;;
1140;SDS011;559;48.628;8.924;2022-08-19T05:04:03;155.30;;;143.30;;
1140;SDS011;559;48.628;8.924;2022-08-19T05:06:32;156.50;;;144.70;;
1140;SDS011;559;48.628;8.924;2022-08-19T05:09:00;150.17;;;138.43;;
1140;SDS011;559;48.628;8.924;2022-08-19T05:11:28;151.77;;;140.37;;
1140;SDS011;559;48.628;8.924;2022-08-19T05:13:56;153.43;;;142.10;;
1140;SDS011;559;48.628;8.924;2022-08-19T05:16:23;150.73;;;139.73;;
1140;SDS011;559;48.628;8.924;2022-08-19T05:18:51;152.27;;;140.57;;
1140;SDS011;559;48.628;8.924;2022-08-19T05:21:36;150.47;;;139.47;;
1140;SDS011;559;48.628;8.924;2022-08-19T05:24:21;150.63;;;139.50;;
1140;SDS011;559;48.628;8.924;2022-08-19T05:26:49;153.87;;;142.60;;
1140;SDS011;559;48.628;8.924;2022-08-19T05:29:18;147.07;;;136.20;;
1140;SDS011;559;48.628;8.924;2022-08-19T05:31:46;151.13;;;139.97;;
1140;SDS011;559;48.628;8.924;2022-08-19T05:34:14;153.63;;;142.13;;
1140;SDS011;559;48.628;8.924;2022-08-19T05:36:43;155.23;;;143.93;;
1140;SDS011;559;48.628;8.924;2022-08-19T05:39:11;147.03;;;136.53;;
1140;SDS011;559;48.628;8.924;2022-08-19T05:41:41;149.60;;;138.73;;
1140;SDS011;559;48.628;8.924;2022-08-19T05:44:07;144.60;;;133.13;;
1140;SDS011;559;48.628;8.924;2022-08-19T05:46:34;142.67;;;131.67;;
1140;SDS011;559;48.628;8.924;2022-08-19T05:49:02;137.60;;;127.13;;
1140;SDS011;559;48.628;8.924;2022-08-19T05:51:29;141.77;;;131.07;;
1140;SDS011;559;48.628;8.924;2022-08-19T05:53:58;142.93;;;132.07;;
1140;SDS011;559;48.628;8.924;2022-08-19T05:56:25;141.43;;;130.87;;
1140;SDS011;559;48.628;8.924;2022-08-19T05:58:51;142.27;;;131.90;;
1140;SDS011;559;48.628;8.924;2022-08-19T06:01:20;144.33;;;133.70;;
1140;SDS011;559;48.628;8.924;2022-08-19T06:03:46;141.30;;;130.80;;
1140;SDS011;559;48.628;8.924;2022-08-19T06:06:14;147.83;;;136.80;;
1140;SDS011;559;48.628;8.924;2022-08-19T06:08:41;143.27;;;132.30;;
1140;SDS011;559;48.628;8.924;2022-08-19T06:11:19;148.03;;;136.80;;
1140;SDS011;559;48.628;8.924;2022-08-19T06:13:47;152.40;;;141.13;;
1140;SDS011;559;48.628;8.924;2022-08-19T06:16:15;160.90;;;149.63;;
1140;SDS011;559;48.628;8.924;2022-08-19T06:18:45;153.63;;;142.10;;
1140;SDS011;559;48.628;8.924;2022-08-19T06:21:12;151.37;;;140.17;;
1140;SDS011;559;48.628;8.924;2022-08-19T06:23:39;147.40;;;136.40;;
1140;SDS011;559;48.628;8.924;2022-08-19T06:26:05;145.43;;;134.90;;
1140;SDS011;559;48.628;8.924;2022-08-19T06:28:34;146.83;;;136.53;;
1140;SDS011;559;48.628;8.924;2022-08-19T06:31:05;146.77;;;135.70;;
1140;SDS011;559;48.628;8.924;2022-08-19T06:33:32;142.07;;;131.43;;
1140;SDS011;559;48.628;8.924;2022-08-19T06:35:59;140.37;;;129.77;;
1140;SDS011;559;48.628;8.924;2022-08-19T06:38:25;140.93;;;130.03;;
1140;SDS011;559;48.628;8.924;2022-08-19T06:40:59;144.47;;;133.87;;
1140;SDS011;559;48.628;8.924;2022-08-19T06:43:26;139.20;;;129.20;;
1140;SDS011;559;48.628;8.924;2022-08-19T06:45:54;137.80;;;127.20;;
1140;SDS011;559;48.628;8.924;2022-08-19T06:48:20;136.43;;;126.40;;
1140;SDS011;559;48.628;8.924;2022-08-19T06:50:47;138.80;;;128.00;;
1140;SDS011;559;48.628;8.924;2022-08-19T06:53:16;136.67;;;126.77;;
1140;SDS011;559;48.628;8.924;2022-08-19T06:55:44;140.13;;;129.87;;
1140;SDS011;559;48.628;8.924;2022-08-19T06:58:10;134.43;;;124.40;;
1140;SDS011;559;48.628;8.924;2022-08-19T07:00:37;132.93;;;123.03;;
1140;SDS011;559;48.628;8.924;2022-08-19T07:03:05;134.10;;;123.90;;
1140;SDS011;559;48.628;8.924;2022-08-19T07:05:32;136.20;;;126.27;;
1140;SDS011;559;48.628;8.924;2022-08-19T07:07:58;129.83;;;120.23;;
1140;SDS011;559;48.628;8.924;2022-08-19T07:10:25;131.63;;;121.50;;
1140;SDS011;559;48.628;8.924;2022-08-19T07:12:51;129.07;;;119.50;;
1140;SDS011;559;48.628;8.924;2022-08-19T07:15:18;130.83;;;121.37;;
1140;SDS011;559;48.628;8.924;2022-08-19T07:17:46;129.20;;;119.70;;
1140;SDS011;559;48.628;8.924;2022-08-19T07:20:14;130.77;;;120.93;;
1140;SDS011;559;48.628;8.924;2022-08-19T07:22:41;128.43;;;118.77;;
1140;SDS011;559;48.628;8.924;2022-08-19T07:25:08;137.77;;;128.30;;
1140;SDS011;559;48.628;8.924;2022-08-19T07:27:35;127.20;;;118.43;;
1140;SDS011;559;48.628;8.924;2022-08-19T07:30:02;131.90;;;122.50;;
1140;SDS011;559;48.628;8.924;2022-08-19T07:32:30;121.67;;;112.87;;
1140;SDS011;559;48.628;8.924;2022-08-19T07:34:57;134.17;;;124.00;;
1140;SDS011;559;48.628;8.924;2022-08-19T07:37:26;132.07;;;122.80;;
1140;SDS011;559;48.628;8.924;2022-08-19T07:39:53;126.80;;;118.07;;
1140;SDS011;559;48.628;8.924;2022-08-19T07:42:20;127.57;;;118.27;;
1140;SDS011;559;48.628;8.924;2022-08-19T07:44:47;129.90;;;120.80;;
1140;SDS011;559;48.628;8.924;2022-08-19T07:47:13;129.50;;;120.60;;
1140;SDS011;559;48.628;8.924;2022-08-19T07:49:42;134.70;;;125.23;;
1140;SDS011;559;48.628;8.924;2022-08-19T07:52:09;138.33;;;128.63;;
1140;SDS011;559;48.628;8.924;2022-08-19T07:54:38;135.90;;;126.17;;
1140;SDS011;559;48.628;8.924;2022-08-19T07:57:05;130.03;;;121.03;;
1140;SDS011;559;48.628;8.924;2022-08-19T07:59:32;131.50;;;122.10;;
1140;SDS011;559;48.628;8.924;2022-08-19T08:01:59;130.67;;;121.50;;
1140;SDS011;559;48.628;8.924;2022-08-19T08:04:27;127.80;;;118.70;;
1140;SDS011;559;48.628;8.924;2022-08-19T08:07:12;135.60;;;126.00;;
1140;SDS011;559;48.628;8.924;2022-08-19T08:09:57;134.23;;;124.50;;
1140;SDS011;559;48.628;8.924;2022-08-19T08:12:25;130.03;;;120.73;;
1140;SDS011;559;48.628;8.924;2022-08-19T08:14:55;137.67;;;127.90;;
1140;SDS011;559;48.628;8.924;2022-08-19T08:17:24;137.40;;;127.53;;
1140;SDS011;559;48.628;8.924;2022-08-19T08:19:52;128.70;;;119.60;;
1140;SDS011;559;48.628;8.924;2022-08-19T08:22:22;126.13;;;116.67;;
1140;SDS011;559;48.628;8.924;2022-08-19T08:25:05;124.43;;;115.17;;
1140;SDS011;559;48.628;8.924;2022-08-19T08:27:35;126.03;;;117.10;;
1140;SDS011;559;48.628;8.924;2022-08-19T08:30:05;129.97;;;120.70;;
1140;SDS011;559;48.628;8.924;2022-08-19T08:32:34;126.60;;;117.50;;
1140;SDS011;559;48.628;8.924;2022-08-19T08:35:00;121.70;;;113.07;;
1140;SDS011;559;48.628;8.924;2022-08-19T08:37:27;125.33;;;116.27;;
1140;SDS011;559;48.628;8.924;2022-08-19T08:39:54;120.37;;;111.80;;
1140;SDS011;559;48.628;8.924;2022-08-19T08:42:23;127.30;;;118.40;;
1140;SDS011;559;48.628;8.924;2022-08-19T08:44:53;120.73;;;111.53;;
1140;SDS011;559;48.628;8.924;2022-08-19T08:47:24;125.13;;;115.87;;
1140;SDS011;559;48.628;8.924;2022-08-19T08:49:53;119.67;;;111.10;;
1140;SDS011;559;48.628;8.924;2022-08-19T08:52:24;118.60;;;110.30;;
1140;SDS011;559;48.628;8.924;2022-08-19T08:54:53;125.23;;;116.33;;
1140;SDS011;559;48.628;8.924;2022-08-19T08:57:25;116.67;;;108.50;;
1140;SDS011;559;48.628;8.924;2022-08-19T08:59:54;134.33;;;125.03;;
1140;SDS011;559;48.628;8.924;2022-08-19T09:02:23;123.93;;;115.23;;
1140;SDS011;559;48.628;8.924;2022-08-19T09:04:51;122.70;;;114.20;;
1140;SDS011;559;48.628;8.924;2022-08-19T09:07:21;134.10;;;125.17;;
1140;SDS011;559;48.628;8.924;2022-08-19T09:09:54;132.87;;;123.97;;
1140;SDS011;559;48.628;8.924;2022-08-19T09:12:27;137.20;;;127.80;;
1140;SDS011;559;48.628;8.924;2022-08-19T09:15:00;132.50;;;123.43;;
1140;SDS011;559;48.628;8.924;2022-08-19T09:17:30;128.37;;;119.77;;
1140;SDS011;559;48.628;8.924;2022-08-19T09:20:00;126.20;;;116.83;;
1140;SDS011;559;48.628;8.924;2022-08-19T09:22:33;125.03;;;115.73;;
1140;SDS011;559;48.628;8.924;2022-08-19T09:25:00;125.63;;;116.37;;
1140;SDS011;559;48.628;8.924;2022-08-19T09:27:28;123.03;;;113.93;;
1140;SDS011;559;48.628;8.924;2022-08-19T09:29:55;123.77;;;114.87;;
1140;SDS011;559;48.628;8.924;2022-08-19T09:32:22;119.77;;;110.97;;
1140;SDS011;559;48.628;8.924;2022-08-19T09:34:49;120.20;;;110.87;;
1140;SDS011;559;48.628;8.924;2022-08-19T09:37:19;115.23;;;106.73;;
1140;SDS011;559;48.628;8.924;2022-08-19T09:39:45;113.90;;;105.33;;
1140;SDS011;559;48.628;8.924;2022-08-19T09:42:12;115.43;;;107.27;;
1140;SDS011;559;48.628;8.924;2022-08-19T09:44:41;118.67;;;110.27;;
1140;SDS011;559;48.628;8.924;2022-08-19T09:47:08;106.33;;;98.23;;
1140;SDS011;559;48.628;8.924;2022-08-19T09:49:36;112.37;;;104.27;;
1140;SDS011;559;48.628;8.924;2022-08-19T09:52:04;106.47;;;98.43;;
1140;SDS011;559;48.628;8.924;2022-08-19T09:54:32;109.47;;;101.00;;
1140;SDS011;559;48.628;8.924;2022-08-19T09:56:59;111.70;;;103.40;;
1140;SDS011;559;48.628;8.924;2022-08-19T09:59:26;116.57;;;108.07;;
1140;SDS011;559;48.628;8.924;2022-08-19T10:01:54;110.40;;;101.90;;
1140;SDS011;559;48.628;8.924;2022-08-19T10:04:21;106.97;;;99.20;;
1140;SDS011;559;48.628;8.924;2022-08-19T10:06:48;113.97;;;105.40;;
1140;SDS011;559;48.628;8.924;2022-08-19T10:09:16;104.70;;;96.30;;
1140;SDS011;559;48.628;8.924;2022-08-19T10:11:44;100.50;;;92.97;;
1140;SDS011;559;48.628;8.924;2022-08-19T10:14:15;102.33;;;94.40;;
1140;SDS011;559;48.628;8.924;2022-08-19T10:16:41;100.80;;;93.50;;
1140;SDS011;559;48.628;8.924;2022-08-19T10:19:10;97.53;;;90.17;;
1140;SDS011;559;48.628;8.924;2022-08-19T10:21:36;100.17;;;92.77;;
1140;SDS011;559;48.628;8.924;2022-08-19T10:24:04;99.83;;;92.53;;
1140;SDS011;559;48.628;8.924;2022-08-19T10:26:32;97.60;;;90.30;;
1140;SDS011;559;48.628;8.924;2022-08-19T10:29:01;99.57;;;92.37;;
1140;SDS011;559;48.628;8.924;2022-08-19T10:31:30;98.10;;;90.73;;
1140;SDS011;559;48.628;8.924;2022-08-19T10:33:58;97.83;;;90.53;;
1140;SDS011;559;48.628;8.924;2022-08-19T10:36:28;96.53;;;89.73;;
1140;SDS011;559;48.628;8.924;2022-08-19T10:38:57;94.73;;;87.87;;
1140;SDS011;559;48.628;8.924;2022-08-19T10:41:27;96.13;;;89.13;;
1140;SDS011;559;48.628;8.924;2022-08-19T10:43:55;92.50;;;85.97;;
1140;SDS011;559;48.628;8.924;2022-08-19T10:46:24;89.77;;;83.43;;
1140;SDS011;559;48.628;8.924;2022-08-19T10:48:51;87.60;;;81.30;;
1140;SDS011;559;48.628;8.924;2022-08-19T10:51:19;84.87;;;78.77;;
1140;SDS011;559;48.628;8.924;2022-08-19T10:54:04;87.33;;;81.00;;
1140;SDS011;559;48.628;8.924;2022-08-19T10:56:32;82.30;;;76.50;;
1140;SDS011;559;48.628;8.924;2022-08-19T10:59:17;89.17;;;83.30;;
1140;SDS011;559;48.628;8.924;2022-08-19T11:01:45;80.83;;;75.37;;
1140;SDS011;559;48.628;8.924;2022-08-19T11:04:12;80.97;;;75.57;;
1140;SDS011;559;48.628;8.924;2022-08-19T11:06:42;77.47;;;72.37;;
1140;SDS011;559;48.628;8.924;2022-08-19T11:09:11;78.77;;;73.50;;
1140;SDS011;559;48.628;8.924;2022-08-19T11:11:38;77.03;;;71.60;;
1140;SDS011;559;48.628;8.924;2022-08-19T11:14:05;79.90;;;74.57;;
1140;SDS011;559;48.628;8.924;2022-08-19T11:16:32;77.67;;;72.27;;
1140;SDS011;559;48.628;8.924;2022-08-19T11:18:59;77.43;;;72.13;;
1140;SDS011;559;48.628;8.924;2022-08-19T11:21:27;73.47;;;68.50;;
1140;SDS011;559;48.628;8.924;2022-08-19T11:23:57;69.77;;;65.03;;
1140;SDS011;559;48.628;8.924;2022-08-19T11:26:26;72.80;;;68.10;;
1140;SDS011;559;48.628;8.924;2022-08-19T11:28:54;75.17;;;69.90;;
1140;SDS011;559;48.628;8.924;2022-08-19T11:31:21;68.77;;;64.57;;
1140;SDS011;559;48.628;8.924;2022-08-19T11:33:48;69.77;;;65.40;;
1140;SDS011;559;48.628;8.924;2022-08-19T11:36:20;67.57;;;63.57;;
1140;SDS011;559;48.628;8.924;2022-08-19T11:38:48;67.23;;;63.13;;
1140;SDS011;559;48.628;8.924;2022-08-19T11:41:15;66.03;;;62.20;;
1140;SDS011;559;48.628;8.924;2022-08-19T11:43:44;66.10;;;62.20;;
1140;SDS011;559;48.628;8.924;2022-08-19T11:46:12;64.57;;;60.77;;
1140;SDS011;559;48.628;8.924;2022-08-19T11:48:39;64.87;;;61.03;;
1140;SDS011;559;48.628;8.924;2022-08-19T11:51:07;66.70;;;63.00;;
1140;SDS011;559;48.628;8.924;2022-08-19T11:53:35;66.43;;;62.23;;
1140;SDS011;559;48.628;8.924;2022-08-19T11:56:03;66.43;;;62.30;;
1140;SDS011;559;48.628;8.924;2022-08-19T11:58:30;65.47;;;61.77;;
1140;SDS011;559;48.628;8.924;2022-08-19T12:00:58;64.93;;;61.33;;
1140;SDS011;559;48.628;8.924;2022-08-19T12:03:25;63.60;;;60.10;;
1140;SDS011;559;48.628;8.924;2022-08-19T12:05:52;65.37;;;61.37;;
1140;SDS011;559;48.628;8.924;2022-08-19T12:08:19;64.00;;;60.33;;
1140;SDS011;559;48.628;8.924;2022-08-19T12:10:46;61.87;;;58.63;;
1140;SDS011;559;48.628;8.924;2022-08-19T12:13:13;61.90;;;58.40;;
1140;SDS011;559;48.628;8.924;2022-08-19T12:15:46;58.23;;;55.23;;
1140;SDS011;559;48.628;8.924;2022-08-19T12:18:14;59.10;;;56.30;;
1140;SDS011;559;48.628;8.924;2022-08-19T12:20:42;61.60;;;58.50;;
1140;SDS011;559;48.628;8.924;2022-08-19T12:23:10;60.37;;;57.27;;
1140;SDS011;559;48.628;8.924;2022-08-19T12:25:37;59.83;;;56.77;;
1140;SDS011;559;48.628;8.924;2022-08-19T12:28:04;59.40;;;56.37;;
1140;SDS011;559;48.628;8.924;2022-08-19T12:30:30;56.67;;;53.77;;
1140;SDS011;559;48.628;8.924;2022-08-19T12:32:57;51.07;;;48.83;;
1140;SDS011;559;48.628;8.924;2022-08-19T12:35:25;41.13;;;39.23;;
1140;SDS011;559;48.628;8.924;2022-08-19T12:37:52;42.03;;;40.07;;
1140;SDS011;559;48.628;8.924;2022-08-19T12:40:18;38.10;;;36.50;;
1140;SDS011;559;48.628;8.924;2022-08-19T12:42:47;34.70;;;33.20;;
1140;SDS011;559;48.628;8.924;2022-08-19T12:45:16;27.47;;;26.37;;
1140;SDS011;559;48.628;8.924;2022-08-19T12:47:42;21.33;;;20.23;;
1140;SDS011;559;48.628;8.924;2022-08-19T12:50:11;15.60;;;14.80;;
1140;SDS011;559;48.628;8.924;2022-08-19T12:52:39;17.30;;;16.40;;
1140;SDS011;559;48.628;8.924;2022-08-19T12:55:07;17.67;;;16.77;;
1140;SDS011;559;48.628;8.924;2022-08-19T12:57:35;17.20;;;16.27;;
1140;SDS011;559;48.628;8.924;2022-08-19T13:00:04;13.90;;;13.00;;
1140;SDS011;559;48.628;8.924;2022-08-19T13:02:35;12.83;;;12.00;;
1140;SDS011;559;48.628;8.924;2022-08-19T13:05:01;12.37;;;11.67;;
1140;SDS011;559;48.628;8.924;2022-08-19T13:07:28;14.40;;;13.63;;
1140;SDS011;559;48.628;8.924;2022-08-19T13:09:57;14.67;;;13.97;;
1140;SDS011;559;48.628;8.924;2022-08-19T13:12:23;17.00;;;16.10;;
1140;SDS011;559;48.628;8.924;2022-08-19T13:14:51;14.53;;;13.73;;
1140;SDS011;559;48.628;8.924;2022-08-19T13:17:18;17.10;;;16.00;;
1140;SDS011;559;48.628;8.924;2022-08-19T13:19:45;14.77;;;13.97;;
1140;SDS011;559;48.628;8.924;2022-08-19T13:22:11;16.20;;;15.40;;
1140;SDS011;559;48.628;8.924;2022-08-19T13:24:38;14.57;;;13.87;;
1140;SDS011;559;48.628;8.924;2022-08-19T13:27:06;21.70;;;20.43;;
1140;SDS011;559;48.628;8.924;2022-08-19T13:29:32;25.47;;;23.80;;
1140;SDS011;559;48.628;8.924;2022-08-19T13:32:17;29.97;;;28.17;;
1140;SDS011;559;48.628;8.924;2022-08-19T13:35:01;35.13;;;33.53;;
1140;SDS011;559;48.628;8.924;2022-08-19T13:37:27;34.97;;;33.27;;
1140;SDS011;559;48.628;8.924;2022-08-19T13:40:07;36.67;;;35.20;;
1140;SDS011;559;48.628;8.924;2022-08-19T13:42:38;36.63;;;35.10;;
1140;SDS011;559;48.628;8.924;2022-08-19T13:45:05;35.47;;;33.90;;
1140;SDS011;559;48.628;8.924;2022-08-19T13:47:32;39.80;;;38.20;;
1140;SDS011;559;48.628;8.924;2022-08-19T13:50:00;38.10;;;36.50;;
1140;SDS011;559;48.628;8.924;2022-08-19T13:52:26;43.43;;;41.20;;
1140;SDS011;559;48.628;8.924;2022-08-19T13:54:53;42.50;;;40.80;;
1140;SDS011;559;48.628;8.924;2022-08-19T13:57:20;47.43;;;45.43;;
1140;SDS011;559;48.628;8.924;2022-08-19T13:59:48;41.10;;;39.40;;
1140;SDS011;559;48.628;8.924;2022-08-19T14:02:14;40.10;;;38.40;;
1140;SDS011;559;48.628;8.924;2022-08-19T14:04:41;44.83;;;42.97;;
1140;SDS011;559;48.628;8.924;2022-08-19T14:07:07;44.57;;;42.93;;
1140;SDS011;559;48.628;8.924;2022-08-19T14:09:34;51.23;;;48.90;;
1140;SDS011;559;48.628;8.924;2022-08-19T14:12:01;39.47;;;37.63;;
1140;SDS011;559;48.628;8.924;2022-08-19T14:14:27;41.60;;;39.83;;
1140;SDS011;559;48.628;8.924;2022-08-19T14:16:55;39.10;;;37.50;;
1140;SDS011;559;48.628;8.924;2022-08-19T14:19:22;42.90;;;41.10;;
1140;SDS011;559;48.628;8.924;2022-08-19T14:21:48;40.00;;;38.33;;
1140;SDS011;559;48.628;8.924;2022-08-19T14:24:15;40.73;;;39.10;;
1140;SDS011;559;48.628;8.924;2022-08-19T14:26:41;44.00;;;42.30;;
1140;SDS011;559;48.628;8.924;2022-08-19T14:29:08;44.00;;;42.20;;
1140;SDS011;559;48.628;8.924;2022-08-19T14:31:34;36.77;;;35.20;;
1140;SDS011;559;48.628;8.924;2022-08-19T14:34:02;24.83;;;23.63;;
1140;SDS011;559;48.628;8.924;2022-08-19T14:36:29;26.53;;;25.33;;
1140;SDS011;559;48.628;8.924;2022-08-19T14:38:59;29.37;;;27.97;;
1140;SDS011;559;48.628;8.924;2022-08-19T14:41:26;33.43;;;32.03;;
1140;SDS011;559;48.628;8.924;2022-08-19T14:43:53;32.40;;;31.00;;
1140;SDS011;559;48.628;8.924;2022-08-19T14:46:21;41.60;;;39.60;;
1140;SDS011;559;48.628;8.924;2022-08-19T14:48:50;36.67;;;34.97;;